Terminal Aerodrome Forecast
Issued by NWS Lubbock, TX

Home | Current Version | Previous Version | Text Only | Print | Product List | Glossary On
Versions: 1 2 3 4 5 6 7 8 9 10 11 12 13 14 15 16 17 18 19 20 21 22 23 24
811
FTUS44 KLUB 311506 AAA
TAFLBB
TAF AMD
KLBB 311506Z 3115/0112 04011KT P6SM SCT180 BKN240
     FM311800 15013KT P6SM SCT035
     FM010000 02012KT P6SM SCT025 BKN040 PROB30 0100/0106 5SM -TSRA
      BKN020CB=

USA.gov is the U.S. government's official web portal to all federal, state and local government web resources and services.